sensor_id;sensor_type;location;lat;lon;timestamp;P1;durP1;ratioP1;P2;durP2;ratioP2
53710;SDS011;39605;52.704;6.752;2023-07-09T00:00:37;5.35;;;5.05;;
53710;SDS011;39605;52.704;6.752;2023-07-09T00:03:05;5.80;;;5.45;;
53710;SDS011;39605;52.704;6.752;2023-07-09T00:05:31;5.50;;;5.00;;
53710;SDS011;39605;52.704;6.752;2023-07-09T00:07:57;5.15;;;4.80;;
53710;SDS011;39605;52.704;6.752;2023-07-09T00:10:25;5.57;;;5.07;;
53710;SDS011;39605;52.704;6.752;2023-07-09T00:12:51;7.95;;;5.65;;
53710;SDS011;39605;52.704;6.752;2023-07-09T00:15:17;5.78;;;5.32;;
53710;SDS011;39605;52.704;6.752;2023-07-09T00:17:43;8.60;;;5.68;;
53710;SDS011;39605;52.704;6.752;2023-07-09T00:20:14;4.78;;;4.28;;
53710;SDS011;39605;52.704;6.752;2023-07-09T00:22:41;6.07;;;4.90;;
53710;SDS011;39605;52.704;6.752;2023-07-09T00:25:09;4.97;;;4.68;;
53710;SDS011;39605;52.704;6.752;2023-07-09T00:27:41;7.07;;;4.65;;
53710;SDS011;39605;52.704;6.752;2023-07-09T00:30:18;4.72;;;4.38;;
53710;SDS011;39605;52.704;6.752;2023-07-09T00:32:44;5.05;;;4.63;;
53710;SDS011;39605;52.704;6.752;2023-07-09T00:35:13;5.18;;;4.78;;
53710;SDS011;39605;52.704;6.752;2023-07-09T00:37:41;5.70;;;5.30;;
53710;SDS011;39605;52.704;6.752;2023-07-09T00:40:10;6.07;;;5.50;;
53710;SDS011;39605;52.704;6.752;2023-07-09T00:42:39;5.57;;;5.15;;
53710;SDS011;39605;52.704;6.752;2023-07-09T00:45:15;5.80;;;5.07;;
53710;SDS011;39605;52.704;6.752;2023-07-09T00:50:10;5.30;;;4.80;;
53710;SDS011;39605;52.704;6.752;2023-07-09T00:52:40;5.75;;;5.32;;
53710;SDS011;39605;52.704;6.752;2023-07-09T00:55:11;5.60;;;5.13;;
53710;SDS011;39605;52.704;6.752;2023-07-09T00:57:39;6.03;;;5.72;;
53710;SDS011;39605;52.704;6.752;2023-07-09T01:00:09;5.95;;;5.13;;
53710;SDS011;39605;52.704;6.752;2023-07-09T01:02:38;5.85;;;5.45;;
53710;SDS011;39605;52.704;6.752;2023-07-09T01:05:08;6.68;;;5.20;;
53710;SDS011;39605;52.704;6.752;2023-07-09T01:07:36;6.60;;;5.43;;
53710;SDS011;39605;52.704;6.752;2023-07-09T01:10:04;5.88;;;5.45;;
53710;SDS011;39605;52.704;6.752;2023-07-09T01:12:30;4.97;;;4.68;;
53710;SDS011;39605;52.704;6.752;2023-07-09T01:14:56;5.60;;;5.00;;
53710;SDS011;39605;52.704;6.752;2023-07-09T01:17:24;6.07;;;5.55;;
53710;SDS011;39605;52.704;6.752;2023-07-09T01:19:53;5.05;;;4.65;;
53710;SDS011;39605;52.704;6.752;2023-07-09T01:22:20;5.60;;;5.20;;
53710;SDS011;39605;52.704;6.752;2023-07-09T01:24:54;5.30;;;5.00;;
53710;SDS011;39605;52.704;6.752;2023-07-09T01:27:25;4.95;;;4.57;;
53710;SDS011;39605;52.704;6.752;2023-07-09T01:29:52;5.18;;;4.60;;
53710;SDS011;39605;52.704;6.752;2023-07-09T01:32:18;5.72;;;5.35;;
53710;SDS011;39605;52.704;6.752;2023-07-09T01:34:49;5.28;;;4.78;;
53710;SDS011;39605;52.704;6.752;2023-07-09T01:37:18;5.18;;;4.88;;
53710;SDS011;39605;52.704;6.752;2023-07-09T01:39:47;6.05;;;5.45;;
53710;SDS011;39605;52.704;6.752;2023-07-09T01:42:14;6.20;;;5.13;;
53710;SDS011;39605;52.704;6.752;2023-07-09T01:44:42;5.60;;;5.22;;
53710;SDS011;39605;52.704;6.752;2023-07-09T01:47:08;5.50;;;5.10;;
53710;SDS011;39605;52.704;6.752;2023-07-09T01:49:35;6.72;;;5.15;;
53710;SDS011;39605;52.704;6.752;2023-07-09T01:52:01;5.65;;;5.20;;
53710;SDS011;39605;52.704;6.752;2023-07-09T01:54:29;6.25;;;5.20;;
53710;SDS011;39605;52.704;6.752;2023-07-09T01:56:59;5.38;;;4.88;;
53710;SDS011;39605;52.704;6.752;2023-07-09T01:59:37;6.20;;;5.75;;
53710;SDS011;39605;52.704;6.752;2023-07-09T02:02:06;6.35;;;5.78;;
53710;SDS011;39605;52.704;6.752;2023-07-09T02:04:33;5.70;;;5.20;;
53710;SDS011;39605;52.704;6.752;2023-07-09T02:06:59;5.60;;;5.20;;
53710;SDS011;39605;52.704;6.752;2023-07-09T02:09:25;5.40;;;5.00;;
53710;SDS011;39605;52.704;6.752;2023-07-09T02:11:51;5.32;;;5.03;;
53710;SDS011;39605;52.704;6.752;2023-07-09T02:14:17;6.20;;;5.80;;
53710;SDS011;39605;52.704;6.752;2023-07-09T02:16:44;5.50;;;5.03;;
53710;SDS011;39605;52.704;6.752;2023-07-09T02:19:10;5.68;;;5.25;;
53710;SDS011;39605;52.704;6.752;2023-07-09T02:21:36;8.93;;;5.55;;
53710;SDS011;39605;52.704;6.752;2023-07-09T02:24:02;6.00;;;5.50;;
53710;SDS011;39605;52.704;6.752;2023-07-09T02:26:29;5.85;;;5.45;;
53710;SDS011;39605;52.704;6.752;2023-07-09T02:28:55;6.35;;;5.85;;
53710;SDS011;39605;52.704;6.752;2023-07-09T02:31:21;5.32;;;5.03;;
53710;SDS011;39605;52.704;6.752;2023-07-09T02:33:47;5.72;;;5.22;;
53710;SDS011;39605;52.704;6.752;2023-07-09T02:36:13;7.88;;;5.78;;
53710;SDS011;39605;52.704;6.752;2023-07-09T02:38:39;5.93;;;5.53;;
53710;SDS011;39605;52.704;6.752;2023-07-09T02:41:05;5.63;;;5.10;;
53710;SDS011;39605;52.704;6.752;2023-07-09T02:43:31;5.35;;;4.95;;
53710;SDS011;39605;52.704;6.752;2023-07-09T02:45:57;6.15;;;5.25;;
53710;SDS011;39605;52.704;6.752;2023-07-09T02:48:23;5.45;;;5.07;;
53710;SDS011;39605;52.704;6.752;2023-07-09T02:50:49;5.70;;;5.30;;
53710;SDS011;39605;52.704;6.752;2023-07-09T02:53:15;5.43;;;5.13;;
53710;SDS011;39605;52.704;6.752;2023-07-09T02:55:41;5.70;;;5.30;;
53710;SDS011;39605;52.704;6.752;2023-07-09T02:58:08;5.47;;;5.18;;
53710;SDS011;39605;52.704;6.752;2023-07-09T03:00:34;5.65;;;5.20;;
53710;SDS011;39605;52.704;6.752;2023-07-09T03:03:00;6.30;;;5.72;;
53710;SDS011;39605;52.704;6.752;2023-07-09T03:05:26;5.72;;;5.32;;
53710;SDS011;39605;52.704;6.752;2023-07-09T03:07:52;6.30;;;5.90;;
53710;SDS011;39605;52.704;6.752;2023-07-09T03:10:18;5.80;;;5.35;;
53710;SDS011;39605;52.704;6.752;2023-07-09T03:12:44;5.85;;;5.32;;
53710;SDS011;39605;52.704;6.752;2023-07-09T03:15:11;6.00;;;5.55;;
53710;SDS011;39605;52.704;6.752;2023-07-09T03:17:37;6.45;;;5.80;;
53710;SDS011;39605;52.704;6.752;2023-07-09T03:20:03;5.82;;;5.32;;
53710;SDS011;39605;52.704;6.752;2023-07-09T03:22:30;5.40;;;5.00;;
53710;SDS011;39605;52.704;6.752;2023-07-09T03:24:56;5.97;;;5.47;;
53710;SDS011;39605;52.704;6.752;2023-07-09T03:27:22;6.20;;;5.80;;
53710;SDS011;39605;52.704;6.752;2023-07-09T03:29:48;5.97;;;5.57;;
53710;SDS011;39605;52.704;6.752;2023-07-09T03:32:14;5.88;;;5.45;;
53710;SDS011;39605;52.704;6.752;2023-07-09T03:34:41;6.68;;;6.22;;
53710;SDS011;39605;52.704;6.752;2023-07-09T03:37:07;6.40;;;5.82;;
53710;SDS011;39605;52.704;6.752;2023-07-09T03:39:33;7.28;;;6.18;;
53710;SDS011;39605;52.704;6.752;2023-07-09T03:41:59;6.60;;;5.97;;
53710;SDS011;39605;52.704;6.752;2023-07-09T03:44:25;7.55;;;6.85;;
53710;SDS011;39605;52.704;6.752;2023-07-09T03:46:52;6.50;;;6.00;;
53710;SDS011;39605;52.704;6.752;2023-07-09T03:49:18;6.07;;;5.68;;
53710;SDS011;39605;52.704;6.752;2023-07-09T03:51:44;7.30;;;6.00;;
53710;SDS011;39605;52.704;6.752;2023-07-09T03:54:13;6.43;;;6.03;;
53710;SDS011;39605;52.704;6.752;2023-07-09T03:56:39;6.13;;;5.70;;
53710;SDS011;39605;52.704;6.752;2023-07-09T03:59:05;6.57;;;6.18;;
53710;SDS011;39605;52.704;6.752;2023-07-09T04:01:32;6.80;;;6.20;;
53710;SDS011;39605;52.704;6.752;2023-07-09T04:03:58;6.68;;;6.07;;
53710;SDS011;39605;52.704;6.752;2023-07-09T04:06:24;6.32;;;5.93;;
53710;SDS011;39605;52.704;6.752;2023-07-09T04:08:50;6.10;;;5.60;;
53710;SDS011;39605;52.704;6.752;2023-07-09T04:11:16;6.72;;;6.13;;
53710;SDS011;39605;52.704;6.752;2023-07-09T04:13:42;6.20;;;5.80;;
53710;SDS011;39605;52.704;6.752;2023-07-09T04:16:09;6.70;;;6.05;;
53710;SDS011;39605;52.704;6.752;2023-07-09T04:18:35;7.65;;;6.28;;
53710;SDS011;39605;52.704;6.752;2023-07-09T04:21:01;6.07;;;5.57;;
53710;SDS011;39605;52.704;6.752;2023-07-09T04:23:28;6.05;;;5.55;;
53710;SDS011;39605;52.704;6.752;2023-07-09T04:25:54;6.55;;;5.95;;
53710;SDS011;39605;52.704;6.752;2023-07-09T04:28:20;6.38;;;5.78;;
53710;SDS011;39605;52.704;6.752;2023-07-09T04:30:47;6.93;;;6.25;;
53710;SDS011;39605;52.704;6.752;2023-07-09T04:33:13;5.70;;;5.32;;
53710;SDS011;39605;52.704;6.752;2023-07-09T04:35:42;6.40;;;5.72;;
53710;SDS011;39605;52.704;6.752;2023-07-09T04:38:09;5.15;;;4.85;;
53710;SDS011;39605;52.704;6.752;2023-07-09T04:40:35;6.35;;;5.95;;
53710;SDS011;39605;52.704;6.752;2023-07-09T04:43:01;6.20;;;5.70;;
53710;SDS011;39605;52.704;6.752;2023-07-09T04:45:27;6.68;;;6.18;;
53710;SDS011;39605;52.704;6.752;2023-07-09T04:47:53;6.65;;;6.15;;
53710;SDS011;39605;52.704;6.752;2023-07-09T04:50:19;6.55;;;5.95;;
53710;SDS011;39605;52.704;6.752;2023-07-09T04:52:45;6.88;;;6.32;;
53710;SDS011;39605;52.704;6.752;2023-07-09T04:55:11;6.55;;;6.03;;
53710;SDS011;39605;52.704;6.752;2023-07-09T04:57:37;6.82;;;6.30;;
53710;SDS011;39605;52.704;6.752;2023-07-09T05:00:05;7.05;;;6.35;;
53710;SDS011;39605;52.704;6.752;2023-07-09T05:02:31;7.32;;;6.72;;
53710;SDS011;39605;52.704;6.752;2023-07-09T05:04:57;6.15;;;5.65;;
53710;SDS011;39605;52.704;6.752;2023-07-09T05:07:23;5.97;;;5.57;;
53710;SDS011;39605;52.704;6.752;2023-07-09T05:09:50;6.60;;;6.10;;
53710;SDS011;39605;52.704;6.752;2023-07-09T05:12:16;8.27;;;6.03;;
53710;SDS011;39605;52.704;6.752;2023-07-09T05:14:42;6.70;;;5.93;;
53710;SDS011;39605;52.704;6.752;2023-07-09T05:17:08;6.82;;;6.40;;
53710;SDS011;39605;52.704;6.752;2023-07-09T05:19:35;6.57;;;6.07;;
53710;SDS011;39605;52.704;6.752;2023-07-09T05:22:01;6.97;;;6.38;;
53710;SDS011;39605;52.704;6.752;2023-07-09T05:24:27;7.00;;;6.13;;
53710;SDS011;39605;52.704;6.752;2023-07-09T05:26:53;6.75;;;6.20;;
53710;SDS011;39605;52.704;6.752;2023-07-09T05:29:19;7.10;;;6.40;;
53710;SDS011;39605;52.704;6.752;2023-07-09T05:31:45;7.05;;;6.43;;
53710;SDS011;39605;52.704;6.752;2023-07-09T05:34:12;7.60;;;6.45;;
53710;SDS011;39605;52.704;6.752;2023-07-09T05:36:38;6.68;;;6.10;;
53710;SDS011;39605;52.704;6.752;2023-07-09T05:39:04;6.47;;;5.88;;
53710;SDS011;39605;52.704;6.752;2023-07-09T05:41:30;7.20;;;6.35;;
53710;SDS011;39605;52.704;6.752;2023-07-09T05:43:56;6.72;;;6.03;;
53710;SDS011;39605;52.704;6.752;2023-07-09T05:46:23;6.85;;;6.25;;
53710;SDS011;39605;52.704;6.752;2023-07-09T05:48:49;6.07;;;5.68;;
53710;SDS011;39605;52.704;6.752;2023-07-09T05:51:15;6.15;;;5.65;;
53710;SDS011;39605;52.704;6.752;2023-07-09T05:53:41;6.95;;;6.45;;
53710;SDS011;39605;52.704;6.752;2023-07-09T05:56:07;6.82;;;6.28;;
53710;SDS011;39605;52.704;6.752;2023-07-09T05:58:34;6.43;;;5.80;;
53710;SDS011;39605;52.704;6.752;2023-07-09T06:01:00;6.03;;;5.43;;
53710;SDS011;39605;52.704;6.752;2023-07-09T06:03:26;7.82;;;7.13;;
53710;SDS011;39605;52.704;6.752;2023-07-09T06:05:53;6.57;;;5.97;;
53710;SDS011;39605;52.704;6.752;2023-07-09T06:08:20;6.60;;;5.88;;
53710;SDS011;39605;52.704;6.752;2023-07-09T06:10:50;7.28;;;6.53;;
53710;SDS011;39605;52.704;6.752;2023-07-09T06:13:16;7.05;;;6.55;;
53710;SDS011;39605;52.704;6.752;2023-07-09T06:15:43;10.48;;;6.70;;
53710;SDS011;39605;52.704;6.752;2023-07-09T06:18:09;6.80;;;6.25;;
53710;SDS011;39605;52.704;6.752;2023-07-09T06:20:35;6.60;;;6.00;;
53710;SDS011;39605;52.704;6.752;2023-07-09T06:23:01;7.25;;;5.65;;
53710;SDS011;39605;52.704;6.752;2023-07-09T06:25:27;7.57;;;6.93;;
53710;SDS011;39605;52.704;6.752;2023-07-09T06:27:53;7.40;;;6.80;;
53710;SDS011;39605;52.704;6.752;2023-07-09T06:30:20;8.82;;;6.18;;
53710;SDS011;39605;52.704;6.752;2023-07-09T06:32:46;9.65;;;6.47;;
53710;SDS011;39605;52.704;6.752;2023-07-09T06:35:12;7.45;;;6.80;;
53710;SDS011;39605;52.704;6.752;2023-07-09T06:37:38;7.45;;;6.68;;
53710;SDS011;39605;52.704;6.752;2023-07-09T06:40:04;8.65;;;6.80;;
53710;SDS011;39605;52.704;6.752;2023-07-09T06:42:33;7.90;;;7.30;;
53710;SDS011;39605;52.704;6.752;2023-07-09T06:44:59;8.02;;;7.15;;
53710;SDS011;39605;52.704;6.752;2023-07-09T06:47:25;6.80;;;6.20;;
53710;SDS011;39605;52.704;6.752;2023-07-09T06:49:51;7.95;;;7.15;;
53710;SDS011;39605;52.704;6.752;2023-07-09T06:52:17;7.15;;;6.55;;
53710;SDS011;39605;52.704;6.752;2023-07-09T06:54:43;6.93;;;6.32;;
53710;SDS011;39605;52.704;6.752;2023-07-09T06:57:09;6.55;;;6.00;;
53710;SDS011;39605;52.704;6.752;2023-07-09T06:59:35;7.22;;;6.60;;
53710;SDS011;39605;52.704;6.752;2023-07-09T07:02:03;8.40;;;6.30;;
53710;SDS011;39605;52.704;6.752;2023-07-09T07:04:29;8.93;;;6.45;;
53710;SDS011;39605;52.704;6.752;2023-07-09T07:06:55;5.93;;;5.53;;
53710;SDS011;39605;52.704;6.752;2023-07-09T07:09:22;6.80;;;6.20;;
53710;SDS011;39605;52.704;6.752;2023-07-09T07:11:49;6.70;;;5.90;;
53710;SDS011;39605;52.704;6.752;2023-07-09T07:14:15;10.93;;;6.47;;
53710;SDS011;39605;52.704;6.752;2023-07-09T07:16:41;8.05;;;5.93;;
53710;SDS011;39605;52.704;6.752;2023-07-09T07:19:07;6.05;;;5.55;;
53710;SDS011;39605;52.704;6.752;2023-07-09T07:21:34;6.93;;;6.32;;
53710;SDS011;39605;52.704;6.752;2023-07-09T07:24:00;10.02;;;6.30;;
53710;SDS011;39605;52.704;6.752;2023-07-09T07:26:27;6.68;;;6.18;;
53710;SDS011;39605;52.704;6.752;2023-07-09T07:28:53;6.72;;;6.15;;
53710;SDS011;39605;52.704;6.752;2023-07-09T07:31:19;6.35;;;5.75;;
53710;SDS011;39605;52.704;6.752;2023-07-09T07:33:46;7.03;;;5.10;;
53710;SDS011;39605;52.704;6.752;2023-07-09T07:36:12;6.57;;;5.80;;
53710;SDS011;39605;52.704;6.752;2023-07-09T07:38:38;7.75;;;5.93;;
53710;SDS011;39605;52.704;6.752;2023-07-09T07:41:04;6.57;;;5.95;;
53710;SDS011;39605;52.704;6.752;2023-07-09T07:43:30;5.60;;;5.10;;
53710;SDS011;39605;52.704;6.752;2023-07-09T07:45:56;6.38;;;5.88;;
53710;SDS011;39605;52.704;6.752;2023-07-09T07:48:22;6.40;;;5.80;;
53710;SDS011;39605;52.704;6.752;2023-07-09T07:50:48;6.30;;;5.65;;
53710;SDS011;39605;52.704;6.752;2023-07-09T07:53:14;5.28;;;4.75;;
53710;SDS011;39605;52.704;6.752;2023-07-09T07:55:41;6.07;;;5.50;;
53710;SDS011;39605;52.704;6.752;2023-07-09T07:58:11;6.25;;;5.22;;
53710;SDS011;39605;52.704;6.752;2023-07-09T08:00:38;6.15;;;5.70;;
53710;SDS011;39605;52.704;6.752;2023-07-09T08:03:05;6.40;;;5.28;;
53710;SDS011;39605;52.704;6.752;2023-07-09T08:05:31;6.40;;;5.55;;
53710;SDS011;39605;52.704;6.752;2023-07-09T08:07:57;6.68;;;6.05;;
53710;SDS011;39605;52.704;6.752;2023-07-09T08:10:23;8.35;;;5.55;;
53710;SDS011;39605;52.704;6.752;2023-07-09T08:12:49;7.43;;;5.43;;
53710;SDS011;39605;52.704;6.752;2023-07-09T08:15:15;6.82;;;4.97;;
53710;SDS011;39605;52.704;6.752;2023-07-09T08:17:42;6.38;;;5.05;;
53710;SDS011;39605;52.704;6.752;2023-07-09T08:20:08;6.07;;;5.25;;
53710;SDS011;39605;52.704;6.752;2023-07-09T08:22:34;5.47;;;4.95;;
53710;SDS011;39605;52.704;6.752;2023-07-09T08:25:01;7.10;;;4.85;;
53710;SDS011;39605;52.704;6.752;2023-07-09T08:27:27;7.70;;;5.10;;
53710;SDS011;39605;52.704;6.752;2023-07-09T08:29:53;6.90;;;4.53;;
53710;SDS011;39605;52.704;6.752;2023-07-09T08:32:19;6.28;;;4.65;;
53710;SDS011;39605;52.704;6.752;2023-07-09T08:34:45;5.43;;;4.93;;
53710;SDS011;39605;52.704;6.752;2023-07-09T08:37:11;7.25;;;4.78;;
53710;SDS011;39605;52.704;6.752;2023-07-09T08:39:37;4.68;;;4.32;;
53710;SDS011;39605;52.704;6.752;2023-07-09T08:42:10;5.55;;;4.80;;
53710;SDS011;39605;52.704;6.752;2023-07-09T08:47:43;4.97;;;4.57;;
53710;SDS011;39605;52.704;6.752;2023-07-09T08:50:17;5.63;;;4.40;;
53710;SDS011;39605;52.704;6.752;2023-07-09T08:52:47;5.85;;;4.22;;
53710;SDS011;39605;52.704;6.752;2023-07-09T08:55:17;7.90;;;5.15;;
53710;SDS011;39605;52.704;6.752;2023-07-09T08:57:45;6.60;;;4.45;;
53710;SDS011;39605;52.704;6.752;2023-07-09T09:00:14;5.03;;;4.18;;
53710;SDS011;39605;52.704;6.752;2023-07-09T09:02:51;5.65;;;4.20;;
53710;SDS011;39605;52.704;6.752;2023-07-09T09:05:19;4.97;;;4.20;;
53710;SDS011;39605;52.704;6.752;2023-07-09T09:07:47;5.75;;;4.03;;
53710;SDS011;39605;52.704;6.752;2023-07-09T09:10:20;5.50;;;3.58;;
53710;SDS011;39605;52.704;6.752;2023-07-09T09:13:02;4.00;;;3.53;;
53710;SDS011;39605;52.704;6.752;2023-07-09T09:15:30;4.65;;;3.58;;
53710;SDS011;39605;52.704;6.752;2023-07-09T09:18:01;6.07;;;4.35;;
53710;SDS011;39605;52.704;6.752;2023-07-09T09:20:35;6.43;;;4.22;;
53710;SDS011;39605;52.704;6.752;2023-07-09T09:25:34;4.90;;;4.47;;
53710;SDS011;39605;52.704;6.752;2023-07-09T09:28:01;4.25;;;3.40;;
53710;SDS011;39605;52.704;6.752;2023-07-09T09:30:30;5.35;;;4.03;;
53710;SDS011;39605;52.704;6.752;2023-07-09T09:32:57;3.80;;;3.42;;
53710;SDS011;39605;52.704;6.752;2023-07-09T09:35:27;3.38;;;2.90;;
53710;SDS011;39605;52.704;6.752;2023-07-09T09:37:55;3.50;;;3.30;;
53710;SDS011;39605;52.704;6.752;2023-07-09T09:40:21;3.67;;;3.38;;
53710;SDS011;39605;52.704;6.752;2023-07-09T09:42:49;5.70;;;3.42;;
53710;SDS011;39605;52.704;6.752;2023-07-09T09:45:16;3.00;;;2.80;;
53710;SDS011;39605;52.704;6.752;2023-07-09T09:47:43;4.22;;;2.85;;
53710;SDS011;39605;52.704;6.752;2023-07-09T09:50:16;3.38;;;3.03;;
53710;SDS011;39605;52.704;6.752;2023-07-09T09:52:43;3.70;;;3.40;;
53710;SDS011;39605;52.704;6.752;2023-07-09T09:58:13;5.43;;;3.03;;
53710;SDS011;39605;52.704;6.752;2023-07-09T10:00:40;4.90;;;2.97;;
53710;SDS011;39605;52.704;6.752;2023-07-09T10:03:06;3.88;;;3.00;;
53710;SDS011;39605;52.704;6.752;2023-07-09T10:05:34;4.05;;;2.90;;
53710;SDS011;39605;52.704;6.752;2023-07-09T10:10:28;3.67;;;3.38;;
53710;SDS011;39605;52.704;6.752;2023-07-09T10:12:58;5.55;;;3.58;;
53710;SDS011;39605;52.704;6.752;2023-07-09T10:31:14;3.53;;;3.30;;
53710;SDS011;39605;52.704;6.752;2023-07-09T10:39:00;4.72;;;3.72;;
53710;SDS011;39605;52.704;6.752;2023-07-09T10:41:28;3.13;;;2.92;;
53710;SDS011;39605;52.704;6.752;2023-07-09T10:43:57;3.72;;;3.30;;
53710;SDS011;39605;52.704;6.752;2023-07-09T10:46:25;4.63;;;3.78;;
53710;SDS011;39605;52.704;6.752;2023-07-09T10:48:53;3.53;;;3.22;;
53710;SDS011;39605;52.704;6.752;2023-07-09T10:51:30;3.10;;;2.90;;
53710;SDS011;39605;52.704;6.752;2023-07-09T10:54:02;4.30;;;3.35;;
53710;SDS011;39605;52.704;6.752;2023-07-09T10:56:31;3.65;;;2.78;;
53710;SDS011;39605;52.704;6.752;2023-07-09T11:01:37;4.20;;;2.85;;
53710;SDS011;39605;52.704;6.752;2023-07-09T11:04:05;3.75;;;3.17;;
53710;SDS011;39605;52.704;6.752;2023-07-09T11:06:42;2.85;;;2.65;;
53710;SDS011;39605;52.704;6.752;2023-07-09T11:11:48;3.63;;;2.97;;
53710;SDS011;39605;52.704;6.752;2023-07-09T11:16:55;3.67;;;2.47;;
53710;SDS011;39605;52.704;6.752;2023-07-09T11:19:22;2.83;;;2.30;;
53710;SDS011;39605;52.704;6.752;2023-07-09T11:24:29;2.78;;;2.28;;
53710;SDS011;39605;52.704;6.752;2023-07-09T11:26:55;5.90;;;3.00;;
53710;SDS011;39605;52.704;6.752;2023-07-09T11:29:23;3.17;;;2.42;;
53710;SDS011;39605;52.704;6.752;2023-07-09T11:31:49;4.05;;;2.88;;
53710;SDS011;39605;52.704;6.752;2023-07-09T11:34:16;3.17;;;2.25;;
53710;SDS011;39605;52.704;6.752;2023-07-09T11:39:21;2.60;;;2.40;;
53710;SDS011;39605;52.704;6.752;2023-07-09T11:41:48;3.08;;;2.65;;
53710;SDS011;39605;52.704;6.752;2023-07-09T11:46:46;5.40;;;2.88;;
53710;SDS011;39605;52.704;6.752;2023-07-09T11:49:14;2.88;;;2.65;;
53710;SDS011;39605;52.704;6.752;2023-07-09T11:51:41;3.05;;;2.67;;
53710;SDS011;39605;52.704;6.752;2023-07-09T11:54:11;3.33;;;2.63;;
53710;SDS011;39605;52.704;6.752;2023-07-09T11:56:40;4.10;;;2.38;;
53710;SDS011;39605;52.704;6.752;2023-07-09T11:59:08;3.72;;;2.13;;
53710;SDS011;39605;52.704;6.752;2023-07-09T12:01:43;2.97;;;1.70;;
53710;SDS011;39605;52.704;6.752;2023-07-09T12:04:17;3.83;;;2.10;;
53710;SDS011;39605;52.704;6.752;2023-07-09T12:09:17;5.32;;;2.85;;
53710;SDS011;39605;52.704;6.752;2023-07-09T12:11:44;5.30;;;2.10;;
53710;SDS011;39605;52.704;6.752;2023-07-09T12:14:21;3.00;;;2.38;;
53710;SDS011;39605;52.704;6.752;2023-07-09T12:16:48;2.85;;;2.22;;
53710;SDS011;39605;52.704;6.752;2023-07-09T12:19:16;2.97;;;1.67;;
53710;SDS011;39605;52.704;6.752;2023-07-09T12:21:43;5.10;;;2.28;;
53710;SDS011;39605;52.704;6.752;2023-07-09T12:24:23;2.50;;;1.80;;
53710;SDS011;39605;52.704;6.752;2023-07-09T12:26:51;1.75;;;1.63;;
53710;SDS011;39605;52.704;6.752;2023-07-09T12:29:17;3.33;;;2.05;;
53710;SDS011;39605;52.704;6.752;2023-07-09T12:31:43;3.03;;;2.00;;
53710;SDS011;39605;52.704;6.752;2023-07-09T12:34:11;2.22;;;2.08;;
53710;SDS011;39605;52.704;6.752;2023-07-09T12:36:38;2.30;;;1.85;;
53710;SDS011;39605;52.704;6.752;2023-07-09T12:39:05;2.90;;;2.03;;
53710;SDS011;39605;52.704;6.752;2023-07-09T12:41:35;4.35;;;2.10;;
53710;SDS011;39605;52.704;6.752;2023-07-09T12:44:03;3.70;;;1.58;;
53710;SDS011;39605;52.704;6.752;2023-07-09T12:46:29;1.90;;;1.73;;
53710;SDS011;39605;52.704;6.752;2023-07-09T12:48:56;2.72;;;1.60;;
53710;SDS011;39605;52.704;6.752;2023-07-09T12:51:23;4.53;;;1.65;;
53710;SDS011;39605;52.704;6.752;2023-07-09T12:54:00;1.98;;;1.63;;
53710;SDS011;39605;52.704;6.752;2023-07-09T12:56:26;3.67;;;1.92;;
53710;SDS011;39605;52.704;6.752;2023-07-09T12:58:55;2.75;;;2.00;;
53710;SDS011;39605;52.704;6.752;2023-07-09T13:01:22;2.78;;;2.17;;
53710;SDS011;39605;52.704;6.752;2023-07-09T13:03:54;3.45;;;1.55;;
53710;SDS011;39605;52.704;6.752;2023-07-09T13:06:34;2.10;;;1.98;;
53710;SDS011;39605;52.704;6.752;2023-07-09T13:09:00;2.75;;;1.63;;
53710;SDS011;39605;52.704;6.752;2023-07-09T13:11:34;3.38;;;1.73;;
53710;SDS011;39605;52.704;6.752;2023-07-09T13:14:04;3.78;;;2.28;;
53710;SDS011;39605;52.704;6.752;2023-07-09T13:16:30;4.00;;;1.75;;
53710;SDS011;39605;52.704;6.752;2023-07-09T13:19:03;4.83;;;2.50;;
53710;SDS011;39605;52.704;6.752;2023-07-09T13:21:29;3.35;;;1.70;;
53710;SDS011;39605;52.704;6.752;2023-07-09T13:23:55;2.03;;;1.88;;
53710;SDS011;39605;52.704;6.752;2023-07-09T13:26:21;3.33;;;2.10;;
53710;SDS011;39605;52.704;6.752;2023-07-09T13:28:47;3.08;;;2.38;;
53710;SDS011;39605;52.704;6.752;2023-07-09T13:31:16;4.18;;;2.40;;
53710;SDS011;39605;52.704;6.752;2023-07-09T13:33:43;3.72;;;1.85;;
53710;SDS011;39605;52.704;6.752;2023-07-09T13:36:09;2.75;;;1.95;;
53710;SDS011;39605;52.704;6.752;2023-07-09T13:38:36;2.28;;;2.13;;
53710;SDS011;39605;52.704;6.752;2023-07-09T13:41:12;6.50;;;1.77;;
53710;SDS011;39605;52.704;6.752;2023-07-09T13:43:41;2.83;;;1.33;;
53710;SDS011;39605;52.704;6.752;2023-07-09T13:46:08;7.57;;;2.15;;
53710;SDS011;39605;52.704;6.752;2023-07-09T13:48:34;2.47;;;2.05;;
53710;SDS011;39605;52.704;6.752;2023-07-09T13:51:01;3.95;;;1.75;;
53710;SDS011;39605;52.704;6.752;2023-07-09T13:53:29;3.22;;;1.63;;
53710;SDS011;39605;52.704;6.752;2023-07-09T13:55:55;2.47;;;1.73;;
53710;SDS011;39605;52.704;6.752;2023-07-09T13:58:23;3.83;;;1.63;;
53710;SDS011;39605;52.704;6.752;2023-07-09T14:00:50;3.10;;;1.55;;
53710;SDS011;39605;52.704;6.752;2023-07-09T14:03:20;3.83;;;1.85;;
53710;SDS011;39605;52.704;6.752;2023-07-09T14:05:47;2.05;;;1.35;;
53710;SDS011;39605;52.704;6.752;2023-07-09T14:08:13;4.40;;;1.25;;
53710;SDS011;39605;52.704;6.752;2023-07-09T14:10:41;4.97;;;1.83;;
53710;SDS011;39605;52.704;6.752;2023-07-09T14:13:14;2.20;;;1.60;;
53710;SDS011;39605;52.704;6.752;2023-07-09T14:15:41;2.63;;;1.58;;
53710;SDS011;39605;52.704;6.752;2023-07-09T14:18:17;1.92;;;1.35;;
53710;SDS011;39605;52.704;6.752;2023-07-09T14:20:43;1.60;;;1.40;;
53710;SDS011;39605;52.704;6.752;2023-07-09T14:23:10;4.05;;;1.75;;
53710;SDS011;39605;52.704;6.752;2023-07-09T14:25:36;3.35;;;1.73;;
53710;SDS011;39605;52.704;6.752;2023-07-09T14:28:13;1.63;;;1.20;;
53710;SDS011;39605;52.704;6.752;2023-07-09T14:30:40;2.45;;;1.52;;
53710;SDS011;39605;52.704;6.752;2023-07-09T14:33:08;4.43;;;1.67;;
53710;SDS011;39605;52.704;6.752;2023-07-09T14:35:37;1.98;;;1.73;;
53710;SDS011;39605;52.704;6.752;2023-07-09T14:38:05;3.85;;;1.45;;
53710;SDS011;39605;52.704;6.752;2023-07-09T14:40:36;2.42;;;1.50;;
53710;SDS011;39605;52.704;6.752;2023-07-09T14:43:04;2.70;;;1.65;;
53710;SDS011;39605;52.704;6.752;2023-07-09T14:45:30;5.55;;;1.50;;
53710;SDS011;39605;52.704;6.752;2023-07-09T14:47:57;3.83;;;1.35;;
53710;SDS011;39605;52.704;6.752;2023-07-09T14:50:23;4.22;;;1.80;;
53710;SDS011;39605;52.704;6.752;2023-07-09T14:52:50;2.22;;;1.80;;
53710;SDS011;39605;52.704;6.752;2023-07-09T14:55:20;1.75;;;1.65;;
53710;SDS011;39605;52.704;6.752;2023-07-09T14:57:46;2.15;;;1.85;;
53710;SDS011;39605;52.704;6.752;2023-07-09T15:00:17;3.63;;;1.90;;
53710;SDS011;39605;52.704;6.752;2023-07-09T15:02:43;6.00;;;2.15;;
53710;SDS011;39605;52.704;6.752;2023-07-09T15:05:14;2.10;;;1.98;;
53710;SDS011;39605;52.704;6.752;2023-07-09T15:07:41;5.10;;;2.67;;
53710;SDS011;39605;52.704;6.752;2023-07-09T15:10:08;4.13;;;2.00;;
53710;SDS011;39605;52.704;6.752;2023-07-09T15:12:35;2.92;;;2.03;;
53710;SDS011;39605;52.704;6.752;2023-07-09T15:15:11;3.42;;;1.85;;
53710;SDS011;39605;52.704;6.752;2023-07-09T15:17:38;3.60;;;1.77;;
53710;SDS011;39605;52.704;6.752;2023-07-09T15:20:04;2.70;;;2.50;;
53710;SDS011;39605;52.704;6.752;2023-07-09T15:22:31;3.40;;;2.50;;
53710;SDS011;39605;52.704;6.752;2023-07-09T15:24:58;3.75;;;2.65;;
53710;SDS011;39605;52.704;6.752;2023-07-09T15:27:24;4.18;;;2.58;;
53710;SDS011;39605;52.704;6.752;2023-07-09T15:29:50;5.55;;;3.00;;
53710;SDS011;39605;52.704;6.752;2023-07-09T15:32:17;5.00;;;2.65;;
53710;SDS011;39605;52.704;6.752;2023-07-09T15:34:43;4.82;;;2.92;;
53710;SDS011;39605;52.704;6.752;2023-07-09T15:37:12;3.38;;;1.88;;
53710;SDS011;39605;52.704;6.752;2023-07-09T15:39:39;4.82;;;2.20;;
53710;SDS011;39605;52.704;6.752;2023-07-09T15:42:12;3.20;;;2.40;;